This is the latest recevied weather packets stored in our database for station/object BMCB-24. If no packets are shown the sender has not sent any weather packets the latest 10 day(s).
| Time | Temp. | Humidity | Pressure | Rain* | Wind** | Luminosity | Snow |
|---|---|---|---|---|---|---|---|
| 1777948858 | 9.44° C | 10% | 1011.7 hPa | 0 mm | - | - | - |
| 1777936866 | 8.89° C | 10% | 1012.9 hPa | 0 mm | - | - | - |
| 1777933865 | 10° C | 98% | 1013.2 hPa | 0 mm | - | 0 W/m² | - |
| 1777932666 | 10.56° C | 99% | 1013.2 hPa | 0 mm | - | 0 W/m² | - |
| 1777932066 | 11.11° C | 99% | 1013.3 hPa | 0 mm | - | 0 W/m² | - |
| 1777931469 | 11.11° C | 99% | 1013.4 hPa | 0 mm | - | 0 W/m² | - |
| 1777930872 | 11.11° C | 99% | 1013.5 hPa | 0 mm | - | 0 W/m² | - |
| 1777927870 | 11.11° C | 98% | 1013.8 hPa | 0 mm | - | 0 W/m² | - |
| 1777925477 | 11.11° C | 98% | 1013.8 hPa | 0.25 mm | - | 0 W/m² | - |
| 1777923666 | 11.11° C | 98% | 1013.7 hPa | 0.25 mm | - | 0 W/m² | - |
| 1777921872 | 11.67° C | 98% | 1013.5 hPa | 0.25 mm | - | 0 W/m² | - |
| 1777920672 | 11.67° C | 97% | 1013.5 hPa | 0 mm | - | 2 W/m² | - |
| 1777917065 | 11.67° C | 97% | 1013.6 hPa | 0 mm | - | 12 W/m² | - |
| 1777915867 | 11.67° C | 96% | 1013.6 hPa | 0 mm | - | 30 W/m² | - |
| 1777915265 | 11.67° C | 96% | 1013.6 hPa | 0 mm | - | 28 W/m² | - |
| 1777910462 | 11.67° C | 96% | 1014.2 hPa | 2.29 mm | - | 34 W/m² | - |
| 1777908661 | 11.67° C | 96% | 1014.3 hPa | 1.52 mm | - | 62 W/m² | - |
| 1777907464 | 11.67° C | 94% | 1014.4 hPa | 1.02 mm | - | 20 W/m² | - |
| 1777906861 | 11.67° C | 92% | 1014.3 hPa | 0.51 mm | - | 38 W/m² | - |
| 1777901462 | 13.33° C | 86% | 1014.6 hPa | 0 mm | - | 42 W/m² | - |
| 1777900261 | 13.33° C | 85% | 1014.5 hPa | 0.25 mm | - | 104 W/m² | - |
| 1777899660 | 13.89° C | 85% | 1014.6 hPa | 0.25 mm | - | 166 W/m² | - |
| 1777899063 | 13.33° C | 85% | 1014.7 hPa | 0.25 mm | - | 162 W/m² | - |
| 1777897860 | 13.33° C | 87% | 1014.7 hPa | 0.25 mm | - | 172 W/m² | - |
| 1777897260 | 13.33° C | 88% | 1014.7 hPa | 0.25 mm | - | 168 W/m² | - |
* Rain latest hour (hover to see other rain measurements)
** Current wind speed in m/s (hover to see current wind gust speed)